createdAt,value
2023-03-05T00:02:05.937Z,100903.28
2023-03-05T00:07:12.578Z,100898.97
2023-03-05T00:12:15.374Z,100887.78
2023-03-05T00:17:18.554Z,100887.06
2023-03-05T00:22:21.309Z,100889.72
2023-03-05T00:27:23.970Z,100884.13
2023-03-05T00:32:26.765Z,100871.56
2023-03-05T00:37:29.613Z,100873.06
2023-03-05T00:42:33.964Z,100868.88
2023-03-05T00:47:36.949Z,100868.47
2023-03-05T00:52:40.356Z,100863.97
2023-03-05T00:57:43.128Z,100866.91
2023-03-05T01:02:46.262Z,100860.22
2023-03-05T01:07:48.956Z,100847.31
2023-03-05T01:12:51.600Z,100861.09
2023-03-05T01:17:54.291Z,100847.69
2023-03-05T01:22:59.246Z,100844.19
2023-03-05T01:28:02.322Z,100839.91
2023-03-05T01:33:05.375Z,100846.50
2023-03-05T01:38:08.135Z,100811.50
2023-03-05T01:43:11.127Z,100845.66
2023-03-05T01:48:13.791Z,100843.31
2023-03-05T01:53:16.425Z,100839.81
2023-03-05T01:58:19.173Z,100850.38
2023-03-05T02:03:23.870Z,100852.41
2023-03-05T02:08:26.563Z,100851.06
2023-03-05T02:13:36.016Z,100841.38
2023-03-05T02:18:38.764Z,100833.88
2023-03-05T02:23:42.412Z,100789.63
2023-03-05T02:28:56.045Z,100820.94
2023-03-05T02:33:58.919Z,100821.78
2023-03-05T02:39:02.097Z,100844.56
2023-03-05T02:44:05.566Z,100846.41
2023-03-05T02:49:08.298Z,100842.38
2023-03-05T02:54:11.086Z,100857.75
2023-03-05T02:59:14.032Z,100858.59
2023-03-05T03:04:16.823Z,100850.50
2023-03-05T03:09:19.520Z,100861.06
2023-03-05T03:14:22.345Z,100859.31
2023-03-05T03:19:25.272Z,100858.75
2023-03-05T03:24:28.042Z,100845.28
2023-03-05T03:29:30.931Z,100877.38
2023-03-05T03:34:33.601Z,100863.44
2023-03-05T03:39:36.295Z,100824.13
2023-03-05T03:44:38.934Z,100864.00
2023-03-05T03:49:41.679Z,100871.28
2023-03-05T03:54:44.388Z,100869.91
2023-03-05T03:59:47.161Z,100867.94
2023-03-05T04:04:49.850Z,100863.03
2023-03-05T04:09:52.564Z,100859.66
2023-03-05T04:14:55.373Z,100857.91
2023-03-05T04:19:58.002Z,100853.03
2023-03-05T04:25:00.712Z,100853.38
2023-03-05T04:30:04.489Z,100844.59
2023-03-05T04:35:07.752Z,100845.09
2023-03-05T04:40:11.765Z,100845.31
2023-03-05T04:45:14.823Z,100841.75
2023-03-05T04:50:17.637Z,100847.38
2023-03-05T04:55:20.550Z,100832.31
2023-03-05T05:05:57.810Z,100825.84
2023-03-05T05:11:03.062Z,100824.19
2023-03-05T05:16:09.686Z,100807.66
2023-03-05T05:21:13.959Z,100809.66
2023-03-05T05:26:16.784Z,100812.28
2023-03-05T05:31:20.170Z,100810.13
2023-03-05T05:36:23.076Z,100803.78
2023-03-05T05:41:25.869Z,100797.31
2023-03-05T05:46:29.353Z,100768.81
2023-03-05T05:51:32.125Z,100779.72
2023-03-05T05:56:34.773Z,100753.19
2023-03-05T06:01:37.628Z,100771.03
2023-03-05T06:06:41.955Z,100746.94
2023-03-05T06:11:47.159Z,100765.53
2023-03-05T06:16:49.954Z,100756.63
2023-03-05T06:21:52.992Z,100748.50
2023-03-05T06:26:55.698Z,100741.41
2023-03-05T06:37:14.808Z,100724.16
2023-03-05T06:42:25.434Z,100725.81
2023-03-05T06:47:28.292Z,100717.16
2023-03-05T06:52:33.992Z,100707.88
2023-03-05T06:57:38.034Z,100704.22
2023-03-05T07:02:41.112Z,100681.31
2023-03-05T07:07:49.252Z,100686.47
2023-03-05T07:12:54.219Z,100676.00
2023-03-05T07:17:59.392Z,100660.19
2023-03-05T07:23:02.305Z,100649.31
2023-03-05T07:28:08.543Z,100644.94
2023-03-05T07:33:11.289Z,100632.47
2023-03-05T07:38:14.201Z,100635.66
2023-03-05T07:43:17.359Z,100640.59
2023-03-05T07:48:23.346Z,100627.28
2023-03-05T07:53:26.047Z,100643.25
2023-03-05T07:58:29.209Z,100627.16
2023-03-05T08:03:32.089Z,100630.16
2023-03-05T08:08:42.394Z,100630.94
2023-03-05T08:13:49.585Z,100628.31
2023-03-05T08:18:56.674Z,100591.00
2023-03-05T08:23:59.836Z,100617.41
2023-03-05T08:29:03.697Z,100612.94
2023-03-05T08:34:07.223Z,100613.00
2023-03-05T08:39:10.497Z,100597.97
2023-03-05T08:44:13.342Z,100597.16
2023-03-05T08:49:16.031Z,100600.63
2023-03-05T08:54:18.663Z,100578.66
2023-03-05T08:59:21.332Z,100578.97
2023-03-05T09:04:24.018Z,100575.19
2023-03-05T09:09:26.922Z,100566.53
2023-03-05T09:14:29.845Z,100571.91
2023-03-05T09:19:32.631Z,100570.28
2023-03-05T09:24:35.296Z,100563.66
2023-03-05T09:29:38.313Z,100563.03
2023-03-05T09:34:41.078Z,100552.56
2023-03-05T09:39:43.763Z,100546.00
2023-03-05T09:45:11.311Z,100534.19
2023-03-05T09:50:35.694Z,100531.53
2023-03-05T09:55:46.034Z,100526.31
2023-03-05T10:00:56.284Z,100519.66
2023-03-05T10:06:20.420Z,100523.34
2023-03-05T10:11:39.289Z,100506.72
2023-03-05T10:16:50.837Z,100509.59
2023-03-05T10:21:59.018Z,100497.09
2023-03-05T10:27:38.000Z,100495.47
2023-03-05T10:33:02.240Z,100488.69
2023-03-05T10:38:23.350Z,100482.91
2023-03-05T10:43:41.908Z,100467.78
2023-03-05T10:48:49.759Z,100469.59
2023-03-05T10:53:56.949Z,100447.38
2023-03-05T10:58:59.837Z,100453.25
2023-03-05T11:04:07.990Z,100454.13
2023-03-05T11:09:29.699Z,100441.25
2023-03-05T11:14:35.897Z,100424.34
2023-03-05T11:19:39.978Z,100428.16
2023-03-05T11:24:43.804Z,100419.06
2023-03-05T11:29:50.397Z,100396.25
2023-03-05T11:34:54.481Z,100404.41
2023-03-05T11:40:23.348Z,100366.25
2023-03-05T11:45:27.071Z,100379.13
2023-03-05T11:50:31.990Z,100377.19
2023-03-05T11:55:50.665Z,100365.19
2023-03-05T12:00:53.704Z,100352.06
2023-03-05T12:06:16.513Z,100347.16
2023-03-05T12:11:27.017Z,100339.38
2023-03-05T12:16:37.443Z,100307.06
2023-03-05T12:21:41.885Z,100319.22
2023-03-05T12:26:53.893Z,100319.91
2023-03-05T12:31:57.026Z,100311.56
2023-03-05T12:36:59.755Z,100306.75
2023-03-05T12:42:31.752Z,100288.66
2023-03-05T12:47:34.525Z,100282.47
2023-03-05T12:52:40.063Z,100272.16
2023-03-05T12:57:45.545Z,100232.19
2023-03-05T13:02:56.210Z,100265.47
2023-03-05T13:08:23.855Z,100254.75
2023-03-05T13:13:31.069Z,100213.66
2023-03-05T13:18:34.032Z,100217.22
2023-03-05T13:23:36.866Z,100193.56
2023-03-05T13:28:40.368Z,100217.00
2023-03-05T13:33:53.602Z,100210.66
2023-03-05T13:38:56.407Z,100174.06
2023-03-05T13:44:01.164Z,100206.03
2023-03-05T13:49:22.878Z,100186.22
2023-03-05T13:54:27.146Z,100181.72
2023-03-05T13:59:32.364Z,100184.84
2023-03-05T14:04:39.142Z,100176.78
2023-03-05T14:09:41.899Z,100167.94
2023-03-05T14:14:45.237Z,100163.72
2023-03-05T14:19:48.256Z,100155.88
2023-03-05T14:24:57.809Z,100145.66
2023-03-05T14:30:00.858Z,100116.50
2023-03-05T14:35:05.612Z,100126.84
2023-03-05T14:40:22.350Z,100111.16
2023-03-05T14:45:45.132Z,100099.28
2023-03-05T14:50:56.611Z,100093.16
2023-03-05T14:56:03.196Z,100090.31
2023-03-05T15:01:06.041Z,100064.88
2023-03-05T15:06:16.848Z,100064.75
2023-03-05T15:11:19.751Z,100058.91
2023-03-05T15:16:23.203Z,100012.47
2023-03-05T15:21:40.001Z,99997.63
2023-03-05T15:26:42.842Z,99995.38
2023-03-05T15:31:45.660Z,99977.66
2023-03-05T15:36:48.467Z,99977.16
2023-03-05T15:41:54.396Z,99983.09
2023-03-05T15:46:59.957Z,99972.47
2023-03-05T15:52:02.860Z,99956.66
2023-03-05T15:57:09.483Z,99966.53
2023-03-05T16:02:12.329Z,99934.53
2023-03-05T16:07:18.717Z,99943.69
2023-03-05T16:12:25.982Z,99941.34
2023-03-05T16:17:28.814Z,99927.75
2023-03-05T16:22:31.593Z,99920.88
2023-03-05T16:27:34.537Z,99899.94
2023-03-05T16:32:38.857Z,99902.75
2023-03-05T16:37:42.436Z,99905.59
2023-03-05T16:42:45.225Z,99893.84
2023-03-05T16:47:47.963Z,99875.66
2023-03-05T16:52:50.771Z,99874.38
2023-03-05T16:57:53.543Z,99865.03
2023-03-05T17:02:56.223Z,99865.69
2023-03-05T17:07:59.022Z,99855.06
2023-03-05T17:13:01.794Z,99845.22
2023-03-05T17:18:04.729Z,99835.31
2023-03-05T17:23:07.416Z,99828.72
2023-03-05T17:28:10.920Z,99834.19
2023-03-05T17:33:13.665Z,99802.56
2023-03-05T17:38:16.392Z,99804.53
2023-03-05T17:43:19.359Z,99790.00
2023-03-05T17:48:22.089Z,99798.88
2023-03-05T17:53:24.763Z,99785.34
2023-03-05T17:58:27.449Z,99789.16
2023-03-05T18:03:30.253Z,99766.91
2023-03-05T18:08:32.968Z,99782.13
2023-03-05T18:13:35.795Z,99749.91
2023-03-05T18:18:38.743Z,99758.03
2023-03-05T18:23:41.368Z,99752.72
2023-03-05T18:28:44.540Z,99734.38
2023-03-05T18:33:47.299Z,99754.66
2023-03-05T18:38:50.074Z,99739.38
2023-03-05T18:43:54.842Z,99741.66
2023-03-05T18:48:57.291Z,99745.22
2023-03-05T18:53:59.924Z,99734.59
2023-03-05T18:59:02.594Z,99723.88
2023-03-05T19:04:05.456Z,99712.78
2023-03-05T19:09:17.435Z,99719.09
2023-03-05T19:14:20.061Z,99680.81
2023-03-05T19:19:25.642Z,99717.03
2023-03-05T19:24:30.902Z,99714.53
2023-03-05T19:29:34.712Z,99718.56
2023-03-05T19:34:37.630Z,99724.28
2023-03-05T19:39:40.674Z,99733.97
2023-03-05T19:44:43.436Z,99727.47
2023-03-05T19:49:46.152Z,99731.22
2023-03-05T19:54:48.799Z,99722.44
2023-03-05T19:59:52.906Z,99716.94
2023-03-05T20:04:55.981Z,99711.25
2023-03-05T20:09:58.991Z,99714.09
2023-03-05T20:15:01.678Z,99693.59
2023-03-05T20:20:05.572Z,99720.16
2023-03-05T20:25:08.526Z,99710.19
2023-03-05T20:30:14.528Z,99723.00
2023-03-05T20:35:18.903Z,99721.56
2023-03-05T20:40:21.722Z,99714.28
2023-03-05T20:45:24.439Z,99721.25
2023-03-05T20:50:28.326Z,99716.66
2023-03-05T20:55:32.884Z,99713.00
2023-03-05T21:00:36.675Z,99724.47
2023-03-05T21:05:39.518Z,99707.91
2023-03-05T21:10:42.312Z,99703.22
2023-03-05T21:15:45.096Z,99716.03
2023-03-05T21:20:47.766Z,99705.84
2023-03-05T21:25:50.548Z,99714.41
2023-03-05T21:30:54.584Z,99717.63
2023-03-05T21:35:58.491Z,99709.81
2023-03-05T21:41:02.174Z,99711.66
2023-03-05T21:46:05.290Z,99691.97
2023-03-05T21:51:08.981Z,99701.34
2023-03-05T21:56:18.639Z,99717.50
2023-03-05T22:01:22.286Z,99725.03
2023-03-05T22:06:25.021Z,99740.25
2023-03-05T22:11:27.648Z,99737.63
2023-03-05T22:16:30.348Z,99731.00
2023-03-05T22:21:33.145Z,99735.56
2023-03-05T22:26:40.536Z,99742.28
2023-03-05T22:31:43.452Z,99753.00
2023-03-05T22:36:46.179Z,99759.25
2023-03-05T22:41:48.978Z,99745.13
2023-03-05T22:46:51.831Z,99729.72
2023-03-05T22:51:54.848Z,99749.06
2023-03-05T22:56:57.444Z,99756.75
2023-03-05T23:02:00.101Z,99758.78
2023-03-05T23:07:02.769Z,99764.53
2023-03-05T23:12:06.075Z,99795.22
2023-03-05T23:17:08.698Z,99794.63
2023-03-05T23:22:13.140Z,99801.91
2023-03-05T23:27:17.692Z,99809.75
2023-03-05T23:32:20.446Z,99811.78
2023-03-05T23:37:23.427Z,99802.69
2023-03-05T23:42:26.211Z,99810.91
2023-03-05T23:47:29.018Z,99814.50
2023-03-05T23:52:31.740Z,99816.22
2023-03-05T23:57:35.341Z,99814.66
